sensor_id;sensor_type;location;lat;lon;timestamp;pressure;altitude;pressure_sealevel;temperature;humidity
77639;BME280;66802;52.574;14.398;2023-03-08T00:00:32;99777.25;;;0.49;84.14
77639;BME280;66802;52.574;14.398;2023-03-08T00:02:58;99785.56;;;0.44;83.72
77639;BME280;66802;52.574;14.398;2023-03-08T00:05:24;99781.22;;;0.43;83.77
77639;BME280;66802;52.574;14.398;2023-03-08T00:07:54;99788.47;;;0.41;83.61
77639;BME280;66802;52.574;14.398;2023-03-08T00:10:21;99790.25;;;0.41;83.81
77639;BME280;66802;52.574;14.398;2023-03-08T00:12:46;99802.91;;;0.37;83.99
77639;BME280;66802;52.574;14.398;2023-03-08T00:15:12;99797.38;;;0.40;84.32
77639;BME280;66802;52.574;14.398;2023-03-08T00:17:39;99801.84;;;0.40;84.05
77639;BME280;66802;52.574;14.398;2023-03-08T00:20:06;99793.13;;;0.38;84.49
77639;BME280;66802;52.574;14.398;2023-03-08T00:22:36;99801.09;;;0.38;83.62
77639;BME280;66802;52.574;14.398;2023-03-08T00:25:03;99797.94;;;0.32;84.19
77639;BME280;66802;52.574;14.398;2023-03-08T00:27:28;99807.72;;;0.32;83.97
77639;BME280;66802;52.574;14.398;2023-03-08T00:29:54;99816.63;;;0.31;84.15
77639;BME280;66802;52.574;14.398;2023-03-08T00:32:20;99817.69;;;0.28;84.00
77639;BME280;66802;52.574;14.398;2023-03-08T00:34:45;99823.84;;;0.29;84.22
77639;BME280;66802;52.574;14.398;2023-03-08T00:37:12;99826.22;;;0.21;84.12
77639;BME280;66802;52.574;14.398;2023-03-08T00:39:38;99824.28;;;0.23;84.16
77639;BME280;66802;52.574;14.398;2023-03-08T00:42:04;99816.84;;;0.28;84.04
77639;BME280;66802;52.574;14.398;2023-03-08T00:44:29;99822.47;;;0.23;83.99
77639;BME280;66802;52.574;14.398;2023-03-08T00:46:55;99831.53;;;0.21;84.13
77639;BME280;66802;52.574;14.398;2023-03-08T00:49:21;99822.84;;;0.19;84.31
77639;BME280;66802;52.574;14.398;2023-03-08T00:51:47;99828.13;;;0.19;83.87
77639;BME280;66802;52.574;14.398;2023-03-08T00:54:13;99826.22;;;0.21;83.92
77639;BME280;66802;52.574;14.398;2023-03-08T00:56:39;99829.94;;;0.18;83.94
77639;BME280;66802;52.574;14.398;2023-03-08T00:59:05;99832.81;;;0.15;84.09
77639;BME280;66802;52.574;14.398;2023-03-08T05:02:17;99992.22;;;-0.26;83.52
77639;BME280;66802;52.574;14.398;2023-03-08T05:04:43;99981.84;;;-0.16;82.31
77639;BME280;66802;52.574;14.398;2023-03-08T05:07:09;99987.97;;;-0.16;82.51
77639;BME280;66802;52.574;14.398;2023-03-08T05:09:35;99995.53;;;-0.22;82.71
77639;BME280;66802;52.574;14.398;2023-03-08T05:12:00;99994.88;;;-0.26;82.98
77639;BME280;66802;52.574;14.398;2023-03-08T05:14:26;99998.03;;;-0.21;82.72
77639;BME280;66802;52.574;14.398;2023-03-08T05:16:54;99993.50;;;-0.19;82.02
77639;BME280;66802;52.574;14.398;2023-03-08T05:19:20;99993.50;;;-0.19;82.33
77639;BME280;66802;52.574;14.398;2023-03-08T05:21:55;99985.63;;;-0.20;82.48
77639;BME280;66802;52.574;14.398;2023-03-08T05:24:31;99989.03;;;-0.18;82.56
77639;BME280;66802;52.574;14.398;2023-03-08T05:26:56;99996.38;;;-0.22;82.26
77639;BME280;66802;52.574;14.398;2023-03-08T05:29:22;99988.63;;;-0.12;81.95
77639;BME280;66802;52.574;14.398;2023-03-08T05:31:49;99987.56;;;-0.22;82.02
77639;BME280;66802;52.574;14.398;2023-03-08T05:34:14;99985.88;;;-0.23;82.25
77639;BME280;66802;52.574;14.398;2023-03-08T05:36:40;99992.22;;;-0.26;82.34
77639;BME280;66802;52.574;14.398;2023-03-08T05:39:07;99993.19;;;-0.27;82.88
77639;BME280;66802;52.574;14.398;2023-03-08T05:41:33;99994.34;;;-0.18;82.98
77639;BME280;66802;52.574;14.398;2023-03-08T05:44:00;100004.94;;;-0.18;83.00
77639;BME280;66802;52.574;14.398;2023-03-08T05:46:26;100001.34;;;-0.17;82.90
77639;BME280;66802;52.574;14.398;2023-03-08T05:48:51;100007.31;;;-0.01;81.88
77639;BME280;66802;52.574;14.398;2023-03-08T05:51:18;100013.22;;;-0.10;82.22
77639;BME280;66802;52.574;14.398;2023-03-08T05:53:44;100010.06;;;-0.03;81.93
77639;BME280;66802;52.574;14.398;2023-03-08T05:56:12;100018.13;;;0.09;80.49
77639;BME280;66802;52.574;14.398;2023-03-08T05:58:39;100007.72;;;0.06;80.52
77639;BME280;66802;52.574;14.398;2023-03-08T06:01:22;100021.28;;;0.01;81.18
77639;BME280;66802;52.574;14.398;2023-03-08T06:03:52;100019.41;;;0.03;80.81
77639;BME280;66802;52.574;14.398;2023-03-08T06:06:19;100030.09;;;0.02;80.75
77639;BME280;66802;52.574;14.398;2023-03-08T06:08:46;100035.31;;;0.03;80.57
77639;BME280;66802;52.574;14.398;2023-03-08T06:11:12;100038.72;;;0.05;79.74
77639;BME280;66802;52.574;14.398;2023-03-08T06:13:38;100034.69;;;-0.01;80.23
77639;BME280;66802;52.574;14.398;2023-03-08T06:16:06;100040.41;;;-0.07;81.11
77639;BME280;66802;52.574;14.398;2023-03-08T06:18:36;100042.22;;;0.06;81.24
77639;BME280;66802;52.574;14.398;2023-03-08T06:21:08;100041.25;;;0.07;81.06
77639;BME280;66802;52.574;14.398;2023-03-08T06:23:35;100037.88;;;0.05;80.79
77639;BME280;66802;52.574;14.398;2023-03-08T06:26:02;100036.59;;;0.10;80.32
77639;BME280;66802;52.574;14.398;2023-03-08T06:28:29;100048.38;;;0.06;80.79
77639;BME280;66802;52.574;14.398;2023-03-08T06:30:54;100043.06;;;-0.07;81.39
77639;BME280;66802;52.574;14.398;2023-03-08T06:33:25;100049.31;;;0.05;80.72
77639;BME280;66802;52.574;14.398;2023-03-08T06:36:03;100048.06;;;0.11;80.90
77639;BME280;66802;52.574;14.398;2023-03-08T06:38:31;100052.53;;;0.10;81.19
77639;BME280;66802;52.574;14.398;2023-03-08T06:40:57;100061.66;;;0.19;80.90
77639;BME280;66802;52.574;14.398;2023-03-08T06:43:23;100059.75;;;0.21;80.82
77639;BME280;66802;52.574;14.398;2023-03-08T06:45:49;100059.75;;;0.21;81.11
77639;BME280;66802;52.574;14.398;2023-03-08T06:48:16;100053.25;;;0.12;81.58
77639;BME280;66802;52.574;14.398;2023-03-08T06:50:41;100047.22;;;0.10;81.68
77639;BME280;66802;52.574;14.398;2023-03-08T06:53:07;100049.66;;;0.13;81.46
77639;BME280;66802;52.574;14.398;2023-03-08T06:55:34;100058.44;;;0.14;81.26
77639;BME280;66802;52.574;14.398;2023-03-08T06:58:00;100051.66;;;0.22;81.06
77639;BME280;66802;52.574;14.398;2023-03-08T07:00:26;100051.16;;;0.17;81.03
77639;BME280;66802;52.574;14.398;2023-03-08T07:02:52;100049.34;;;0.18;81.56
77639;BME280;66802;52.574;14.398;2023-03-08T07:05:19;100055.41;;;0.32;81.26
77639;BME280;66802;52.574;14.398;2023-03-08T07:07:45;100059.22;;;0.41;81.08
77639;BME280;66802;52.574;14.398;2023-03-08T07:10:12;100063.69;;;0.53;80.70
77639;BME280;66802;52.574;14.398;2023-03-08T07:12:42;100059.94;;;0.56;79.98
77639;BME280;66802;52.574;14.398;2023-03-08T07:15:13;100051.19;;;0.66;79.30
77639;BME280;66802;52.574;14.398;2023-03-08T07:17:40;100048.56;;;0.66;79.71
77639;BME280;66802;52.574;14.398;2023-03-08T07:20:06;100054.50;;;0.70;79.80
77639;BME280;66802;52.574;14.398;2023-03-08T07:22:32;100049.84;;;0.73;79.21
77639;BME280;66802;52.574;14.398;2023-03-08T07:24:58;100044.41;;;0.75;79.46
77639;BME280;66802;52.574;14.398;2023-03-08T07:27:24;100044.28;;;0.77;79.56
77639;BME280;66802;52.574;14.398;2023-03-08T07:29:50;100042.06;;;0.70;79.84
77639;BME280;66802;52.574;14.398;2023-03-08T07:32:15;100036.75;;;0.70;80.15
77639;BME280;66802;52.574;14.398;2023-03-08T07:34:43;100038.19;;;0.87;79.70
77639;BME280;66802;52.574;14.398;2023-03-08T07:37:12;100040.09;;;0.98;79.09
77639;BME280;66802;52.574;14.398;2023-03-08T07:39:38;100046.59;;;0.94;78.63
77639;BME280;66802;52.574;14.398;2023-03-08T07:42:04;100051.16;;;0.92;79.05
77639;BME280;66802;52.574;14.398;2023-03-08T07:44:29;100058.06;;;0.94;78.79
77639;BME280;66802;52.574;14.398;2023-03-08T07:46:55;100052.00;;;0.92;78.91
77639;BME280;66802;52.574;14.398;2023-03-08T07:49:20;100060.28;;;1.00;78.54
77639;BME280;66802;52.574;14.398;2023-03-08T07:51:48;100055.91;;;0.99;79.05
77639;BME280;66802;52.574;14.398;2023-03-08T07:54:15;100055.50;;;1.05;78.51
77639;BME280;66802;52.574;14.398;2023-03-08T07:56:40;100066.22;;;1.04;78.15
77639;BME280;66802;52.574;14.398;2023-03-08T07:59:06;100055.81;;;1.01;79.23
77639;BME280;66802;52.574;14.398;2023-03-08T08:01:32;100055.31;;;0.96;79.09
77639;BME280;66802;52.574;14.398;2023-03-08T08:03:58;100050.91;;;1.07;79.13
77639;BME280;66802;52.574;14.398;2023-03-08T08:06:25;100061.84;;;1.16;79.15
77639;BME280;66802;52.574;14.398;2023-03-08T08:08:51;100060.19;;;1.26;77.95
77639;BME280;66802;52.574;14.398;2023-03-08T08:11:17;100056.47;;;1.28;78.29
77639;BME280;66802;52.574;14.398;2023-03-08T08:13:46;100053.03;;;1.39;78.31
77639;BME280;66802;52.574;14.398;2023-03-08T08:16:13;100058.00;;;1.43;78.21
77639;BME280;66802;52.574;14.398;2023-03-08T08:18:39;100063.31;;;1.43;78.27
77639;BME280;66802;52.574;14.398;2023-03-08T08:21:10;100057.56;;;1.50;77.56
77639;BME280;66802;52.574;14.398;2023-03-08T08:23:37;100052.94;;;1.52;78.02
77639;BME280;66802;52.574;14.398;2023-03-08T08:26:08;100055.38;;;1.55;77.05
77639;BME280;66802;52.574;14.398;2023-03-08T08:28:36;100052.63;;;1.56;77.68
77639;BME280;66802;52.574;14.398;2023-03-08T08:31:05;100047.66;;;1.63;77.06
77639;BME280;66802;52.574;14.398;2023-03-08T08:33:32;100059.31;;;1.62;77.14
77639;BME280;66802;52.574;14.398;2023-03-08T08:35:58;100059.16;;;1.63;77.25
77639;BME280;66802;52.574;14.398;2023-03-08T08:38:25;100058.31;;;1.63;77.17
77639;BME280;66802;52.574;14.398;2023-03-08T08:40:51;100062.44;;;1.67;77.44
77639;BME280;66802;52.574;14.398;2023-03-08T08:43:17;100054.16;;;1.71;76.63
77639;BME280;66802;52.574;14.398;2023-03-08T08:45:44;100047.59;;;1.75;76.56
77639;BME280;66802;52.574;14.398;2023-03-08T08:48:10;100043.88;;;1.78;76.59
77639;BME280;66802;52.574;14.398;2023-03-08T08:50:38;100055.88;;;1.83;76.32
77639;BME280;66802;52.574;14.398;2023-03-08T08:53:03;100044.72;;;1.78;74.50
77639;BME280;66802;52.574;14.398;2023-03-08T08:55:29;100043.50;;;1.71;75.13
77639;BME280;66802;52.574;14.398;2023-03-08T08:57:55;100046.31;;;1.81;74.58
77639;BME280;66802;52.574;14.398;2023-03-08T09:00:20;100037.00;;;1.87;74.77
77639;BME280;66802;52.574;14.398;2023-03-08T09:02:46;100033.16;;;1.91;74.64
77639;BME280;66802;52.574;14.398;2023-03-08T09:05:12;100037.44;;;2.04;73.77
77639;BME280;66802;52.574;14.398;2023-03-08T09:07:38;100035.25;;;2.09;74.00
77639;BME280;66802;52.574;14.398;2023-03-08T09:10:04;100043.00;;;2.12;73.55
77639;BME280;66802;52.574;14.398;2023-03-08T09:12:30;100036.72;;;2.13;73.81
77639;BME280;66802;52.574;14.398;2023-03-08T09:14:55;100024.63;;;2.20;73.51
77639;BME280;66802;52.574;14.398;2023-03-08T09:17:21;100019.81;;;2.26;72.77
77639;BME280;66802;52.574;14.398;2023-03-08T09:19:46;100025.00;;;2.27;73.21
77639;BME280;66802;52.574;14.398;2023-03-08T09:22:12;100024.41;;;2.35;72.37
77639;BME280;66802;52.574;14.398;2023-03-08T09:24:38;100019.94;;;2.35;72.54
77639;BME280;66802;52.574;14.398;2023-03-08T09:27:04;100019.41;;;2.30;71.52
77639;BME280;66802;52.574;14.398;2023-03-08T09:29:30;100021.84;;;2.33;71.47
77639;BME280;66802;52.574;14.398;2023-03-08T09:31:57;100010.59;;;2.30;71.93
77639;BME280;66802;52.574;14.398;2023-03-08T09:34:22;99997.03;;;2.33;70.36
77639;BME280;66802;52.574;14.398;2023-03-08T09:36:48;100002.59;;;2.30;70.63
77639;BME280;66802;52.574;14.398;2023-03-08T09:39:13;99999.81;;;2.42;71.36
77639;BME280;66802;52.574;14.398;2023-03-08T09:42:01;100010.00;;;2.48;72.24
77639;BME280;66802;52.574;14.398;2023-03-08T09:49:51;100006.59;;;2.69;69.84
77639;BME280;66802;52.574;14.398;2023-03-08T09:52:48;99998.00;;;2.76;69.30
77639;BME280;66802;52.574;14.398;2023-03-08T09:55:23;99991.16;;;2.94;67.90
77639;BME280;66802;52.574;14.398;2023-03-08T09:57:57;99994.94;;;2.92;68.42
77639;BME280;66802;52.574;14.398;2023-03-08T10:00:43;99988.28;;;2.86;69.45
77639;BME280;66802;52.574;14.398;2023-03-08T10:06:34;99987.56;;;2.84;70.28
77639;BME280;66802;52.574;14.398;2023-03-08T10:09:23;99985.28;;;2.80;69.24
77639;BME280;66802;52.574;14.398;2023-03-08T10:12:28;99981.28;;;2.74;69.12
77639;BME280;66802;52.574;14.398;2023-03-08T10:15:08;99987.94;;;2.80;68.62
77639;BME280;66802;52.574;14.398;2023-03-08T10:17:48;99981.66;;;2.81;69.00
77639;BME280;66802;52.574;14.398;2023-03-08T10:20:27;99982.22;;;2.84;69.69
77639;BME280;66802;52.574;14.398;2023-03-08T10:25:35;99974.03;;;3.19;68.88
77639;BME280;66802;52.574;14.398;2023-03-08T10:28:03;99971.84;;;3.24;69.11
77639;BME280;66802;52.574;14.398;2023-03-08T10:30:42;99975.81;;;3.30;68.08
77639;BME280;66802;52.574;14.398;2023-03-08T10:33:11;99971.19;;;3.32;68.10
77639;BME280;66802;52.574;14.398;2023-03-08T10:38:26;99964.03;;;3.33;67.95
77639;BME280;66802;52.574;14.398;2023-03-08T10:41:05;99970.88;;;3.46;67.70
77639;BME280;66802;52.574;14.398;2023-03-08T10:43:35;99969.31;;;3.44;67.67
77639;BME280;66802;52.574;14.398;2023-03-08T10:46:04;99967.16;;;3.38;68.27
77639;BME280;66802;52.574;14.398;2023-03-08T10:48:31;99962.41;;;3.41;67.77
77639;BME280;66802;52.574;14.398;2023-03-08T10:51:03;99966.59;;;3.55;68.24
77639;BME280;66802;52.574;14.398;2023-03-08T10:53:30;99970.13;;;3.76;65.38
77639;BME280;66802;52.574;14.398;2023-03-08T10:55:59;99965.91;;;3.74;63.13
77639;BME280;66802;52.574;14.398;2023-03-08T10:58:35;99962.25;;;3.75;65.42
77639;BME280;66802;52.574;14.398;2023-03-08T11:01:05;99960.81;;;3.71;64.80
77639;BME280;66802;52.574;14.398;2023-03-08T11:03:33;99958.47;;;3.56;65.18
77639;BME280;66802;52.574;14.398;2023-03-08T11:06:14;99954.44;;;3.62;65.99
77639;BME280;66802;52.574;14.398;2023-03-08T11:08:52;99951.88;;;3.60;66.29
77639;BME280;66802;52.574;14.398;2023-03-08T11:11:18;99937.75;;;3.70;64.99
77639;BME280;66802;52.574;14.398;2023-03-08T11:13:46;99938.72;;;3.68;65.38
77639;BME280;66802;52.574;14.398;2023-03-08T11:19:49;99921.88;;;3.68;65.89
77639;BME280;66802;52.574;14.398;2023-03-08T11:22:27;99926.28;;;3.79;65.06
77639;BME280;66802;52.574;14.398;2023-03-08T11:41:53;99892.38;;;3.90;64.12
77639;BME280;66802;52.574;14.398;2023-03-08T11:55:27;99877.09;;;3.72;63.58
77639;BME280;66802;52.574;14.398;2023-03-08T12:01:08;99869.94;;;3.72;63.15
77639;BME280;66802;52.574;14.398;2023-03-08T12:03:42;99871.44;;;3.86;62.42
77639;BME280;66802;52.574;14.398;2023-03-08T12:06:14;99867.78;;;3.87;64.06
77639;BME280;66802;52.574;14.398;2023-03-08T12:11:31;99856.81;;;3.90;64.13
77639;BME280;66802;52.574;14.398;2023-03-08T12:14:18;99850.41;;;4.02;64.05
77639;BME280;66802;52.574;14.398;2023-03-08T12:19:41;99852.28;;;3.81;62.57
77639;BME280;66802;52.574;14.398;2023-03-08T12:22:15;99850.06;;;3.86;62.11
77639;BME280;66802;52.574;14.398;2023-03-08T12:27:34;99837.31;;;3.89;62.71
77639;BME280;66802;52.574;14.398;2023-03-08T12:32:36;99832.34;;;4.25;61.21
77639;BME280;66802;52.574;14.398;2023-03-08T12:35:23;99826.03;;;4.26;62.25
77639;BME280;66802;52.574;14.398;2023-03-08T12:37:56;99825.63;;;4.30;62.20
77639;BME280;66802;52.574;14.398;2023-03-08T12:45:40;99814.84;;;4.42;62.65
77639;BME280;66802;52.574;14.398;2023-03-08T12:51:29;99801.88;;;4.37;62.49
77639;BME280;66802;52.574;14.398;2023-03-08T13:03:56;99806.00;;;4.01;60.52
77639;BME280;66802;52.574;14.398;2023-03-08T13:09:23;99794.13;;;4.34;63.25
77639;BME280;66802;52.574;14.398;2023-03-08T13:11:56;99800.59;;;4.31;61.50
77639;BME280;66802;52.574;14.398;2023-03-08T13:14:40;99803.56;;;4.38;62.06
77639;BME280;66802;52.574;14.398;2023-03-08T13:19:57;99802.00;;;4.35;61.47
77639;BME280;66802;52.574;14.398;2023-03-08T13:25:19;99801.63;;;4.50;61.36
77639;BME280;66802;52.574;14.398;2023-03-08T13:30:27;99797.34;;;4.28;61.00
77639;BME280;66802;52.574;14.398;2023-03-08T13:32:54;99799.59;;;4.23;59.95
77639;BME280;66802;52.574;14.398;2023-03-08T13:35:20;99801.59;;;4.30;62.21
77639;BME280;66802;52.574;14.398;2023-03-08T13:37:57;99803.81;;;4.25;60.41
77639;BME280;66802;52.574;14.398;2023-03-08T13:40:25;99808.28;;;4.15;60.28
77639;BME280;66802;52.574;14.398;2023-03-08T13:43:03;99797.25;;;4.39;61.67
77639;BME280;66802;52.574;14.398;2023-03-08T13:45:35;99794.56;;;4.39;62.07
77639;BME280;66802;52.574;14.398;2023-03-08T13:48:06;99799.34;;;4.35;61.63
77639;BME280;66802;52.574;14.398;2023-03-08T13:50:37;99804.78;;;4.24;61.64
77639;BME280;66802;52.574;14.398;2023-03-08T13:53:09;99800.31;;;4.34;62.09
77639;BME280;66802;52.574;14.398;2023-03-08T13:55:42;99798.19;;;4.28;61.66
77639;BME280;66802;52.574;14.398;2023-03-08T13:58:28;99800.13;;;4.07;61.74
77639;BME280;66802;52.574;14.398;2023-03-08T14:03:30;99795.31;;;4.01;61.77
77639;BME280;66802;52.574;14.398;2023-03-08T14:05:55;99801.13;;;4.16;62.35
77639;BME280;66802;52.574;14.398;2023-03-08T14:08:26;99799.56;;;4.13;63.58
77639;BME280;66802;52.574;14.398;2023-03-08T14:10:58;99798.91;;;4.21;64.13
77639;BME280;66802;52.574;14.398;2023-03-08T14:13:29;99784.25;;;4.15;63.56
77639;BME280;66802;52.574;14.398;2023-03-08T14:15:58;99797.22;;;4.20;63.01
77639;BME280;66802;52.574;14.398;2023-03-08T14:18:43;99791.41;;;4.15;63.88
77639;BME280;66802;52.574;14.398;2023-03-08T14:21:24;99788.03;;;4.13;63.28
77639;BME280;66802;52.574;14.398;2023-03-08T14:23:59;99792.97;;;4.08;63.56
77639;BME280;66802;52.574;14.398;2023-03-08T14:26:34;99785.91;;;3.97;63.33
77639;BME280;66802;52.574;14.398;2023-03-08T14:29:19;99794.47;;;4.00;63.95
77639;BME280;66802;52.574;14.398;2023-03-08T14:31:56;99792.09;;;3.97;63.75
77639;BME280;66802;52.574;14.398;2023-03-08T14:35:03;99779.81;;;3.85;64.21
77639;BME280;66802;52.574;14.398;2023-03-08T14:37:25;99783.16;;;3.78;65.35
77639;BME280;66802;52.574;14.398;2023-03-08T14:40:13;99777.34;;;3.63;66.29
77639;BME280;66802;52.574;14.398;2023-03-08T14:42:42;99772.59;;;3.66;67.89
77639;BME280;66802;52.574;14.398;2023-03-08T14:45:36;99789.28;;;3.68;67.62
77639;BME280;66802;52.574;14.398;2023-03-08T14:48:33;99777.56;;;3.50;69.68
77639;BME280;66802;52.574;14.398;2023-03-08T14:53:58;99763.81;;;3.24;72.60
77639;BME280;66802;52.574;14.398;2023-03-08T14:56:27;99764.72;;;3.14;72.81
77639;BME280;66802;52.574;14.398;2023-03-08T14:58:58;99762.84;;;3.05;72.89
77639;BME280;66802;52.574;14.398;2023-03-08T15:01:32;99763.88;;;2.92;72.66
77639;BME280;66802;52.574;14.398;2023-03-08T15:03:58;99766.28;;;2.96;73.73
77639;BME280;66802;52.574;14.398;2023-03-08T15:06:30;99758.84;;;2.89;73.91
77639;BME280;66802;52.574;14.398;2023-03-08T15:08:59;99753.94;;;2.94;73.73
77639;BME280;66802;52.574;14.398;2023-03-08T15:11:26;99749.19;;;2.98;74.38
77639;BME280;66802;52.574;14.398;2023-03-08T15:13:57;99755.38;;;2.99;74.54
77639;BME280;66802;52.574;14.398;2023-03-08T15:16:23;99750.38;;;2.84;75.39
77639;BME280;66802;52.574;14.398;2023-03-08T15:18:48;99746.59;;;2.87;75.14
77639;BME280;66802;52.574;14.398;2023-03-08T15:21:20;99742.78;;;2.80;74.83
77639;BME280;66802;52.574;14.398;2023-03-08T15:23:46;99743.16;;;2.75;75.16
77639;BME280;66802;52.574;14.398;2023-03-08T15:26:21;99738.06;;;2.72;74.78
77639;BME280;66802;52.574;14.398;2023-03-08T15:28:47;99741.63;;;2.62;75.73
77639;BME280;66802;52.574;14.398;2023-03-08T15:31:12;99742.50;;;2.62;76.21
77639;BME280;66802;52.574;14.398;2023-03-08T15:33:38;99740.88;;;2.71;76.45
77639;BME280;66802;52.574;14.398;2023-03-08T15:36:04;99744.59;;;2.79;76.15
77639;BME280;66802;52.574;14.398;2023-03-08T15:38:30;99739.38;;;2.78;76.31
77639;BME280;66802;52.574;14.398;2023-03-08T15:40:56;99743.53;;;2.71;76.53
77639;BME280;66802;52.574;14.398;2023-03-08T15:43:21;99741.34;;;2.76;75.35
77639;BME280;66802;52.574;14.398;2023-03-08T15:45:47;99745.16;;;2.62;75.70
77639;BME280;66802;52.574;14.398;2023-03-08T15:48:15;99739.50;;;2.55;76.78
77639;BME280;66802;52.574;14.398;2023-03-08T15:50:41;99733.00;;;2.48;76.05
77639;BME280;66802;52.574;14.398;2023-03-08T15:53:07;99732.72;;;2.51;76.12
77639;BME280;66802;52.574;14.398;2023-03-08T15:55:35;99733.44;;;2.53;75.31
77639;BME280;66802;52.574;14.398;2023-03-08T15:58:01;99720.84;;;2.35;74.75
77639;BME280;66802;52.574;14.398;2023-03-08T16:00:27;99726.34;;;2.43;76.07
77639;BME280;66802;52.574;14.398;2023-03-08T16:02:53;99722.25;;;2.39;75.69
77639;BME280;66802;52.574;14.398;2023-03-08T16:05:20;99721.16;;;2.41;75.24
77639;BME280;66802;52.574;14.398;2023-03-08T16:07:59;99725.50;;;2.42;75.39
77639;BME280;66802;52.574;14.398;2023-03-08T16:10:28;99728.50;;;2.49;74.74
77639;BME280;66802;52.574;14.398;2023-03-08T16:12:54;99729.75;;;2.45;75.28
77639;BME280;66802;52.574;14.398;2023-03-08T16:15:20;99727.44;;;2.40;75.40
77639;BME280;66802;52.574;14.398;2023-03-08T16:17:47;99721.75;;;2.45;75.58
77639;BME280;66802;52.574;14.398;2023-03-08T16:20:14;99723.16;;;2.49;75.05
77639;BME280;66802;52.574;14.398;2023-03-08T16:22:40;99727.19;;;2.43;75.57
77639;BME280;66802;52.574;14.398;2023-03-08T16:25:06;99716.22;;;2.37;75.08
77639;BME280;66802;52.574;14.398;2023-03-08T16:27:32;99719.50;;;2.29;74.76
77639;BME280;66802;52.574;14.398;2023-03-08T16:30:02;99721.00;;;2.22;75.73
77639;BME280;66802;52.574;14.398;2023-03-08T16:32:28;99718.66;;;2.29;75.17
77639;BME280;66802;52.574;14.398;2023-03-08T16:34:57;99715.31;;;2.27;74.97
77639;BME280;66802;52.574;14.398;2023-03-08T16:37:24;99725.72;;;2.18;75.17
77639;BME280;66802;52.574;14.398;2023-03-08T16:39:51;99710.34;;;2.22;75.94
77639;BME280;66802;52.574;14.398;2023-03-08T16:42:18;99718.00;;;2.15;75.76
77639;BME280;66802;52.574;14.398;2023-03-08T16:44:51;99718.97;;;2.14;75.82
77639;BME280;66802;52.574;14.398;2023-03-08T16:47:19;99711.75;;;2.05;74.79
77639;BME280;66802;52.574;14.398;2023-03-08T16:49:44;99713.69;;;2.03;74.71
77639;BME280;66802;52.574;14.398;2023-03-08T16:52:10;99711.38;;;1.99;75.17
77639;BME280;66802;52.574;14.398;2023-03-08T16:54:36;99712.50;;;1.85;75.52
77639;BME280;66802;52.574;14.398;2023-03-08T16:57:02;99712.16;;;1.78;75.88
77639;BME280;66802;52.574;14.398;2023-03-08T16:59:30;99717.59;;;1.88;75.89
77639;BME280;66802;52.574;14.398;2023-03-08T17:01:56;99716.75;;;1.88;75.27
77639;BME280;66802;52.574;14.398;2023-03-08T17:04:22;99708.06;;;1.74;76.51
77639;BME280;66802;52.574;14.398;2023-03-08T17:06:49;99720.53;;;1.63;76.22
77639;BME280;66802;52.574;14.398;2023-03-08T17:09:14;99717.28;;;1.70;76.74
77639;BME280;66802;52.574;14.398;2023-03-08T17:11:41;99712.44;;;1.64;77.25
77639;BME280;66802;52.574;14.398;2023-03-08T17:14:09;99705.56;;;1.62;77.64
77639;BME280;66802;52.574;14.398;2023-03-08T17:16:36;99709.31;;;1.59;77.93
77639;BME280;66802;52.574;14.398;2023-03-08T17:19:04;99702.16;;;1.60;77.29
77639;BME280;66802;52.574;14.398;2023-03-08T17:21:30;99703.50;;;1.54;77.70
77639;BME280;66802;52.574;14.398;2023-03-08T17:23:58;99706.66;;;1.59;77.15
77639;BME280;66802;52.574;14.398;2023-03-08T17:26:24;99702.66;;;1.54;77.38
77639;BME280;66802;52.574;14.398;2023-03-08T17:28:53;99699.03;;;1.55;77.57
77639;BME280;66802;52.574;14.398;2023-03-08T17:31:20;99700.59;;;1.46;78.12
77639;BME280;66802;52.574;14.398;2023-03-08T17:33:47;99699.03;;;1.43;78.74
77639;BME280;66802;52.574;14.398;2023-03-08T17:36:14;99707.00;;;1.43;78.82
77639;BME280;66802;52.574;14.398;2023-03-08T17:38:41;99703.88;;;1.50;78.59
77639;BME280;66802;52.574;14.398;2023-03-08T17:41:10;99698.19;;;1.54;78.35
77639;BME280;66802;52.574;14.398;2023-03-08T17:43:36;99705.06;;;1.45;79.04
77639;BME280;66802;52.574;14.398;2023-03-08T17:46:05;99706.06;;;1.33;79.98
77639;BME280;66802;52.574;14.398;2023-03-08T17:48:31;99707.13;;;1.31;80.15
77639;BME280;66802;52.574;14.398;2023-03-08T17:51:01;99699.31;;;1.18;80.79
77639;BME280;66802;52.574;14.398;2023-03-08T17:53:28;99700.28;;;1.17;80.88
77639;BME280;66802;52.574;14.398;2023-03-08T17:55:53;99709.56;;;1.23;80.51
77639;BME280;66802;52.574;14.398;2023-03-08T17:58:19;99707.28;;;1.18;81.08
77639;BME280;66802;52.574;14.398;2023-03-08T18:00:45;99707.00;;;1.21;80.75
77639;BME280;66802;52.574;14.398;2023-03-08T18:03:10;99701.34;;;1.26;80.82
77639;BME280;66802;52.574;14.398;2023-03-08T18:05:36;99702.81;;;1.30;80.48
77639;BME280;66802;52.574;14.398;2023-03-08T18:08:02;99693.25;;;1.27;80.47
77639;BME280;66802;52.574;14.398;2023-03-08T18:10:28;99693.72;;;1.21;81.29
77639;BME280;66802;52.574;14.398;2023-03-08T18:12:54;99695.41;;;1.22;80.66
77639;BME280;66802;52.574;14.398;2023-03-08T18:15:19;99694.00;;;1.18;81.26
77639;BME280;66802;52.574;14.398;2023-03-08T18:17:45;99683.47;;;1.17;81.52
77639;BME280;66802;52.574;14.398;2023-03-08T18:20:12;99687.69;;;1.19;81.51
77639;BME280;66802;52.574;14.398;2023-03-08T18:22:37;99678.16;;;1.17;82.00
77639;BME280;66802;52.574;14.398;2023-03-08T18:25:05;99686.38;;;1.14;81.61
77639;BME280;66802;52.574;14.398;2023-03-08T18:27:31;99676.94;;;1.09;81.77
77639;BME280;66802;52.574;14.398;2023-03-08T18:29:56;99674.78;;;1.15;82.29
77639;BME280;66802;52.574;14.398;2023-03-08T18:32:22;99674.88;;;1.13;81.79
77639;BME280;66802;52.574;14.398;2023-03-08T18:34:48;99667.25;;;1.08;82.35
77639;BME280;66802;52.574;14.398;2023-03-08T18:37:14;99678.16;;;1.05;81.94
77639;BME280;66802;52.574;14.398;2023-03-08T18:39:40;99674.16;;;1.11;82.25